Time;durP1;ratioP1;P1;durP2;ratioP2;P2;SDS_P1;SDS_P2;PMS_P1;PMS_P2;Temp;Humidity;BMP_temperature;BMP_pressure;BME280_temperature;BME280_humidity;BME280_pressure;Samples;Min_cycle;Max_cycle;Signal;HPM_P1;HPM_P2
2022/01/06 00:01:53;;;;;;;6.57;3.03;;;;;;;11.22;65.60;98321.59;6097097;23;20160;-93
2022/01/06 00:04:19;;;;;;;7.27;3.17;;;;;;;11.18;65.49;98322.75;6097393;23;20243;-94
2022/01/06 00:06:45;;;;;;;10.77;4.00;;;;;;;11.10;65.74;98319.81;6097627;23;20156;-94
2022/01/06 00:09:14;;;;;;;16.53;4.33;;;;;;;10.89;66.03;98316.00;6098751;23;20161;-94
2022/01/06 00:11:40;;;;;;;7.77;4.20;;;;;;;10.85;66.36;98310.13;6120314;23;20197;-93
2022/01/06 00:14:13;;;;;;;9.67;3.73;;;;;;;10.43;67.89;98326.03;6097017;23;20171;-94
2022/01/06 00:24:47;;;;;;;9.80;3.13;;;;;;;10.16;72.96;98325.22;6098689;23;20207;-94
2022/01/06 00:27:13;;;;;;;9.13;3.57;;;;;;;10.20;77.45;98318.81;6097349;23;20226;-94
2022/01/06 00:29:38;;;;;;;5.73;2.77;;;;;;;10.47;77.39;98315.28;6121336;23;20196;-94
2022/01/06 00:32:04;;;;;;;9.60;4.03;;;;;;;10.72;75.49;98316.28;6096919;23;20710;-94
2022/01/06 00:34:29;;;;;;;6.43;3.40;;;;;;;10.88;74.97;98328.28;6096906;23;20235;-94
2022/01/06 00:36:55;;;;;;;5.97;2.97;;;;;;;10.84;75.26;98321.56;6096908;23;20160;-94
2022/01/06 00:39:26;;;;;;;7.57;3.17;;;;;;;11.06;74.70;98324.41;6097582;23;20153;-94
2022/01/06 00:41:55;;;;;;;6.43;3.33;;;;;;;11.05;75.11;98321.91;6097069;23;20199;-93
2022/01/06 00:44:20;;;;;;;7.63;3.20;;;;;;;11.13;74.50;98324.84;6121173;23;20156;-93
2022/01/06 00:46:46;;;;;;;9.17;4.70;;;;;;;11.25;75.09;98329.25;6096759;23;20157;-93
2022/01/06 00:49:11;;;;;;;12.00;4.07;;;;;;;11.36;74.46;98329.38;6097272;23;20157;-94
2022/01/06 00:51:37;;;;;;;4.90;2.60;;;;;;;11.35;75.35;98339.94;6096715;23;20478;-94
2022/01/06 00:54:08;;;;;;;5.83;3.03;;;;;;;11.53;75.64;98336.91;6096679;23;20156;-96
2022/01/06 00:56:33;;;;;;;4.40;2.53;;;;;;;11.52;76.65;98322.13;6097179;23;20161;-95
2022/01/06 00:59:05;;;;;;;12.47;3.50;;;;;;;11.64;77.67;98310.75;6097187;23;20303;-94
2022/01/06 01:01:56;;;;;;;6.53;2.77;;;;;;;11.82;77.79;98307.84;6098141;23;20152;-95
2022/01/06 01:04:22;;;;;;;8.33;2.87;;;;;;;12.02;76.63;98309.88;6043260;23;20176;-93
2022/01/06 01:06:48;;;;;;;6.93;3.27;;;;;;;12.25;75.24;98309.91;6097730;23;20153;-93
2022/01/06 01:09:13;;;;;;;12.97;4.13;;;;;;;12.39;73.69;98314.16;6097104;23;20511;-94
2022/01/06 01:11:42;;;;;;;6.23;3.73;;;;;;;12.36;72.14;98309.13;6154468;23;20182;-92
2022/01/06 01:14:18;;;;;;;6.67;3.03;;;;;;;12.29;71.85;98308.72;6130762;23;20164;-93
2022/01/06 01:16:53;;;;;;;10.70;3.67;;;;;;;12.31;71.48;98319.13;6130623;23;20162;-93
2022/01/06 01:19:19;;;;;;;8.60;4.80;;;;;;;12.33;70.56;98319.84;6131205;23;20623;-94
2022/01/06 01:21:45;;;;;;;9.33;4.77;;;;;;;12.20;69.57;98319.06;6130630;23;20197;-93
2022/01/06 01:24:11;;;;;;;10.93;4.40;;;;;;;12.09;68.98;98322.47;6130658;23;20190;-93
2022/01/06 01:26:37;;;;;;;7.93;4.13;;;;;;;12.06;68.74;98320.06;6130565;23;20156;-93
2022/01/06 01:29:03;;;;;;;13.87;5.53;;;;;;;12.01;67.90;98330.03;6130528;23;20179;-92
2022/01/06 01:31:35;;;;;;;11.17;5.83;;;;;;;11.94;67.12;98322.72;6156143;23;20258;-91
2022/01/06 01:34:08;;;;;;;10.20;5.10;;;;;;;11.84;66.89;98329.56;6130621;23;20566;-95
2022/01/06 01:36:33;;;;;;;13.73;5.40;;;;;;;11.63;66.48;98324.81;6130527;23;20590;-93
2022/01/06 01:38:59;;;;;;;15.30;6.80;;;;;;;11.58;66.14;98329.56;6130320;23;20155;-93
2022/01/06 01:41:24;;;;;;;13.33;6.13;;;;;;;11.66;65.53;98334.28;6130670;23;20154;-93
2022/01/06 01:43:53;;;;;;;13.50;5.67;;;;;;;11.60;64.60;98326.84;6130591;23;20170;-93
2022/01/06 01:46:26;;;;;;;11.60;6.70;;;;;;;11.48;64.30;98315.41;6130798;23;20170;-91
2022/01/06 01:49:12;;;;;;;12.57;7.27;;;;;;;11.43;64.43;98328.00;6156353;23;20131;-91
2022/01/06 01:51:39;;;;;;;15.27;6.53;;;;;;;11.44;63.99;98319.19;6155751;23;20191;-93
2022/01/06 01:54:05;;;;;;;18.03;7.23;;;;;;;11.42;64.00;98323.72;6156106;23;20154;-93
2022/01/06 01:56:30;;;;;;;11.73;5.97;;;;;;;11.25;63.97;98324.00;6130475;23;20155;-93
2022/01/06 01:58:57;;;;;;;16.00;7.10;;;;;;;11.29;63.84;98309.75;6130350;23;20601;-93
2022/01/06 02:01:22;;;;;;;14.90;6.67;;;;;;;11.24;63.67;98311.00;6156675;23;20147;-93
2022/01/06 02:03:48;;;;;;;16.30;7.60;;;;;;;11.18;63.13;98301.78;6132268;23;20598;-92
2022/01/06 02:06:14;;;;;;;11.77;5.17;;;;;;;11.10;63.30;98298.84;6157946;23;20151;-93
2022/01/06 02:08:39;;;;;;;17.80;7.13;;;;;;;10.83;63.48;98300.69;6132211;23;20229;-94
2022/01/06 02:11:05;;;;;;;16.73;6.23;;;;;;;10.76;63.67;98299.41;6132175;23;20190;-92
2022/01/06 02:13:31;;;;;;;17.60;7.37;;;;;;;10.58;64.31;98298.00;6132320;23;20164;-92
2022/01/06 02:16:01;;;;;;;14.40;7.13;;;;;;;10.32;64.86;98300.56;6132520;23;20238;-91
2022/01/06 02:18:28;;;;;;;16.13;7.30;;;;;;;10.23;65.62;98297.69;6156760;23;20155;-92
2022/01/06 02:20:54;;;;;;;16.43;8.17;;;;;;;9.98;66.40;98290.53;6132152;23;20155;-91
2022/01/06 02:23:21;;;;;;;27.23;8.50;;;;;;;10.05;66.14;98302.28;6132066;23;20158;-92
2022/01/06 02:25:50;;;;;;;29.60;9.47;;;;;;;10.06;65.52;98313.63;6132033;23;20166;-91
2022/01/06 02:28:18;;;;;;;20.03;7.50;;;;;;;9.92;65.69;98306.63;6158005;23;20206;-91
2022/01/06 02:30:49;;;;;;;267.77;114.10;;;;;;;9.81;66.43;98309.91;6132162;23;20265;-92
2022/01/06 02:33:14;;;;;;;50.70;22.73;;;;;;;9.90;66.61;98308.50;6132026;23;20147;-92
2022/01/06 02:35:40;;;;;;;21.00;9.00;;;;;;;9.84;66.64;98309.72;6132151;23;20151;-93
2022/01/06 02:38:05;;;;;;;16.53;7.60;;;;;;;9.82;66.96;98302.91;6131879;23;20217;-91
2022/01/06 02:40:31;;;;;;;13.67;6.90;;;;;;;9.76;66.93;98295.44;6131993;23;20481;-93
2022/01/06 02:42:59;;;;;;;12.53;6.60;;;;;;;9.75;66.63;98304.22;6131910;23;20157;-91
2022/01/06 02:45:29;;;;;;;13.07;7.27;;;;;;;9.75;66.97;98291.97;6131846;23;20178;-91
2022/01/06 02:47:56;;;;;;;16.90;6.90;;;;;;;9.76;66.87;98290.19;6132549;23;20233;-92
2022/01/06 02:50:23;;;;;;;16.57;6.00;;;;;;;9.42;67.47;98288.00;6131832;23;20603;-93
2022/01/06 02:52:49;;;;;;;15.23;6.73;;;;;;;9.37;68.43;98290.03;6156444;23;20209;-93
2022/01/06 02:55:15;;;;;;;16.20;7.07;;;;;;;9.38;68.92;98292.56;6131950;23;20583;-92
2022/01/06 02:57:42;;;;;;;14.37;6.07;;;;;;;9.51;68.38;98295.28;6132042;23;20202;-91
2022/01/06 03:00:13;;;;;;;10.30;5.87;;;;;;;9.60;68.58;98299.94;6158096;23;20147;-92
2022/01/06 03:02:41;;;;;;;13.80;5.93;;;;;;;9.44;69.68;98300.03;6131925;23;20154;-91
2022/01/06 03:05:07;;;;;;;20.30;7.20;;;;;;;9.34;71.74;98298.06;6131931;23;20154;-93
2022/01/06 03:07:33;;;;;;;14.27;7.00;;;;;;;9.48;71.84;98305.94;6156492;23;20169;-92
2022/01/06 03:09:59;;;;;;;10.17;5.53;;;;;;;9.70;72.85;98304.50;6131572;23;20192;-92
2022/01/06 03:14:50;;;;;;;10.10;5.43;;;;;;;9.62;73.94;98309.38;6157503;23;20151;-93
2022/01/06 03:17:16;;;;;;;14.97;7.33;;;;;;;9.53;74.61;98319.56;6157343;23;20668;-92
2022/01/06 03:19:42;;;;;;;17.73;7.57;;;;;;;9.42;74.72;98322.00;6131570;23;20556;-93
2022/01/06 03:22:07;;;;;;;14.60;7.23;;;;;;;9.51;73.90;98322.25;6131450;23;20164;-93
2022/01/06 03:24:33;;;;;;;17.13;9.30;;;;;;;9.69;73.33;98317.69;6131648;23;20162;-93
2022/01/06 03:26:58;;;;;;;13.30;7.30;;;;;;;9.69;72.78;98309.84;6131700;23;20151;-93
2022/01/06 03:29:24;;;;;;;19.63;7.20;;;;;;;9.74;72.22;98310.41;6131606;23;20162;-92
2022/01/06 03:31:49;;;;;;;18.73;8.37;;;;;;;9.76;72.03;98305.91;6157106;23;20182;-91
2022/01/06 03:34:15;;;;;;;19.63;8.30;;;;;;;9.90;71.18;98311.94;6131461;23;20155;-92
2022/01/06 03:36:41;;;;;;;19.27;8.70;;;;;;;9.98;70.73;98314.09;6131503;23;20154;-92
2022/01/06 03:39:06;;;;;;;19.67;9.03;;;;;;;9.99;70.31;98318.38;6131458;23;20233;-92
2022/01/06 03:41:33;;;;;;;17.73;8.97;;;;;;;9.97;69.51;98325.50;6131540;23;20548;-93
2022/01/06 03:43:59;;;;;;;15.10;7.37;;;;;;;9.92;68.73;98321.47;6131629;23;20161;-93
2022/01/06 03:46:24;;;;;;;15.40;6.90;;;;;;;9.96;68.73;98326.41;6131689;23;20486;-91
2022/01/06 03:48:50;;;;;;;17.73;7.60;;;;;;;9.92;68.38;98329.34;6156937;23;20218;-93
2022/01/06 03:51:20;;;;;;;13.03;6.77;;;;;;;9.78;68.75;98331.03;6131400;23;20183;-92
2022/01/06 03:53:46;;;;;;;13.47;6.73;;;;;;;9.74;68.82;98331.34;6131217;23;20242;-93
2022/01/06 03:56:12;;;;;;;16.30;8.43;;;;;;;9.61;68.60;98325.19;6157166;23;20154;-93
2022/01/06 03:58:39;;;;;;;15.93;7.83;;;;;;;9.56;68.63;98329.84;6157399;23;20147;-92
2022/01/06 04:01:06;;;;;;;19.70;7.20;;;;;;;9.42;68.79;98329.84;6131177;23;20151;-93
2022/01/06 04:03:31;;;;;;;15.03;7.57;;;;;;;9.41;69.12;98325.56;6155859;23;20155;-93
2022/01/06 04:05:57;;;;;;;14.83;7.37;;;;;;;9.38;67.90;98317.91;6156844;23;20159;-92
2022/01/06 04:08:22;;;;;;;16.03;8.00;;;;;;;9.20;67.69;98331.13;6131148;23;20180;-92
2022/01/06 04:10:48;;;;;;;17.27;7.33;;;;;;;9.21;66.98;98324.13;6130893;23;20188;-92
2022/01/06 04:13:13;;;;;;;16.47;7.87;;;;;;;8.93;67.50;98327.56;6131056;23;20514;-92
2022/01/06 04:15:39;;;;;;;15.73;6.53;;;;;;;8.78;68.10;98325.81;6132227;23;20159;-92
2022/01/06 04:18:04;;;;;;;13.23;6.93;;;;;;;8.76;68.50;98327.69;6131179;23;20162;-92
2022/01/06 04:20:30;;;;;;;14.90;7.97;;;;;;;8.73;68.38;98334.84;6131808;23;20474;-92
2022/01/06 04:22:56;;;;;;;17.70;8.00;;;;;;;8.78;68.57;98325.00;6131227;23;20156;-92
2022/01/06 04:25:21;;;;;;;10.80;6.27;;;;;;;8.77;69.09;98338.97;6155680;23;20175;-93
2022/01/06 04:27:47;;;;;;;20.20;8.23;;;;;;;8.76;69.06;98340.75;6131050;23;20159;-92
2022/01/06 04:30:13;;;;;;;19.93;7.70;;;;;;;8.73;69.01;98342.69;6131216;23;20591;-92
2022/01/06 04:32:38;;;;;;;15.63;7.53;;;;;;;8.65;68.97;98349.19;6131024;23;20158;-92
2022/01/06 04:35:05;;;;;;;15.60;7.07;;;;;;;8.61;69.37;98352.09;6130800;23;20160;-92
2022/01/06 04:37:31;;;;;;;15.03;7.43;;;;;;;8.57;69.89;98353.16;6156521;23;20148;-93
2022/01/06 04:39:56;;;;;;;16.90;7.37;;;;;;;8.56;70.60;98346.28;6131031;23;20166;-91
2022/01/06 04:42:22;;;;;;;13.83;7.77;;;;;;;8.41;72.48;98358.41;6157452;23;20151;-94
2022/01/06 04:44:47;;;;;;;24.50;10.30;;;;;;;8.41;71.20;98368.84;6157598;23;20148;-92
2022/01/06 04:47:13;;;;;;;24.57;11.67;;;;;;;8.07;70.71;98355.13;6131184;23;20203;-93
2022/01/06 04:49:38;;;;;;;23.83;10.23;;;;;;;8.14;70.38;98359.94;6156416;23;20151;-92
2022/01/06 04:52:04;;;;;;;20.33;9.20;;;;;;;8.07;70.00;98369.00;6132144;23;20173;-92
2022/01/06 04:54:30;;;;;;;24.30;9.20;;;;;;;7.92;70.49;98360.25;6130994;23;20245;-94
2022/01/06 04:56:55;;;;;;;28.63;9.33;;;;;;;7.92;70.14;98355.03;6130767;23;20155;-92
2022/01/06 04:59:21;;;;;;;18.37;9.13;;;;;;;7.94;69.69;98368.00;6131067;23;20517;-93
2022/01/06 05:01:46;;;;;;;18.20;7.53;;;;;;;7.78;70.54;98372.38;6130745;23;20454;-92
2022/01/06 05:04:12;;;;;;;16.10;8.07;;;;;;;7.47;71.54;98359.28;6130900;23;20155;-92
2022/01/06 05:06:37;;;;;;;14.50;6.97;;;;;;;7.59;70.96;98371.66;6156791;23;20158;-94
2022/01/06 05:09:03;;;;;;;18.60;9.07;;;;;;;7.58;70.63;98365.59;6130814;23;20173;-92
2022/01/06 05:11:29;;;;;;;17.20;6.97;;;;;;;7.59;71.31;98369.03;6130619;23;20234;-93
2022/01/06 05:13:54;;;;;;;14.70;7.03;;;;;;;7.66;71.38;98367.78;6156401;23;20151;-93
2022/01/06 05:16:20;;;;;;;13.60;7.53;;;;;;;7.69;71.58;98363.25;6130601;23;20210;-92
2022/01/06 05:18:46;;;;;;;14.67;6.70;;;;;;;7.73;70.75;98367.38;6130788;23;20650;-93
2022/01/06 05:21:11;;;;;;;16.57;7.57;;;;;;;7.74;70.17;98365.63;6130645;23;20615;-93
2022/01/06 05:23:38;;;;;;;20.00;9.53;;;;;;;7.58;70.37;98365.59;6130853;23;20155;-92
2022/01/06 05:26:04;;;;;;;23.00;8.43;;;;;;;7.58;70.77;98368.19;6156129;23;20234;-93
2022/01/06 05:28:29;;;;;;;18.70;9.57;;;;;;;7.66;70.40;98365.19;6130602;23;20213;-92
2022/01/06 05:30:55;;;;;;;18.83;8.97;;;;;;;7.53;70.54;98367.59;6130476;23;20210;-93
2022/01/06 05:33:20;;;;;;;18.33;8.77;;;;;;;7.34;71.18;98361.66;6130721;23;20224;-93
2022/01/06 05:35:46;;;;;;;21.83;9.10;;;;;;;7.40;71.42;98370.00;6130688;23;20174;-94
2022/01/06 05:38:12;;;;;;;21.63;7.40;;;;;;;7.57;71.62;98374.34;6130893;23;20487;-94
2022/01/06 05:40:37;;;;;;;18.23;8.47;;;;;;;7.64;71.52;98374.84;6130944;23;20159;-93
2022/01/06 05:43:03;;;;;;;19.13;8.07;;;;;;;7.64;71.38;98378.31;6130914;23;20487;-95
2022/01/06 05:45:29;;;;;;;16.40;7.70;;;;;;;7.56;71.82;98377.03;6130703;23;20163;-94
2022/01/06 05:47:55;;;;;;;18.07;9.03;;;;;;;7.44;73.27;98384.56;6130745;23;20155;-92
2022/01/06 05:50:21;;;;;;;14.57;7.40;;;;;;;7.42;72.50;98377.75;6130576;23;20206;-95
2022/01/06 05:52:47;;;;;;;15.13;7.27;;;;;;;7.42;72.78;98386.41;6130692;23;20183;-95
2022/01/06 05:55:13;;;;;;;15.73;7.80;;;;;;;7.54;72.62;98390.16;6130668;23;20237;-94
2022/01/06 05:57:38;;;;;;;22.73;8.20;;;;;;;7.52;72.58;98381.53;6130589;23;20604;-94
2022/01/06 06:00:06;;;;;;;23.00;8.10;;;;;;;7.56;72.98;98390.06;6130535;23;20169;-95
2022/01/06 06:02:31;;;;;;;22.27;8.33;;;;;;;7.67;73.22;98398.16;6155174;23;20585;-94
2022/01/06 06:04:57;;;;;;;19.93;7.27;;;;;;;7.79;73.17;98393.16;6130671;23;20155;-93
2022/01/06 06:07:23;;;;;;;13.60;7.57;;;;;;;7.78;73.24;98394.06;6130905;23;20571;-93
2022/01/06 06:09:50;;;;;;;13.63;6.50;;;;;;;7.80;73.63;98396.59;6130300;23;20225;-95
2022/01/06 06:12:15;;;;;;;16.23;8.43;;;;;;;7.92;73.78;98395.94;6130652;23;20223;-94
2022/01/06 06:14:41;;;;;;;20.07;10.13;;;;;;;7.93;73.77;98401.09;6130463;23;20186;-94
2022/01/06 06:17:07;;;;;;;18.90;8.23;;;;;;;8.03;73.52;98417.94;6130996;23;20159;-93
2022/01/06 06:19:32;;;;;;;19.00;9.10;;;;;;;8.07;74.30;98425.59;6130557;23;20155;-92
2022/01/06 06:21:57;;;;;;;22.67;10.47;;;;;;;8.15;74.15;98421.63;6130486;23;20163;-94
2022/01/06 06:24:23;;;;;;;26.93;11.00;;;;;;;8.20;74.73;98416.19;6130425;23;20174;-92
2022/01/06 06:26:52;;;;;;;28.57;12.83;;;;;;;8.25;74.73;98428.06;6130607;23;20234;-93
2022/01/06 06:29:19;;;;;;;30.57;14.73;;;;;;;8.38;74.28;98423.03;6130457;23;20158;-94
2022/01/06 06:31:44;;;;;;;31.90;14.07;;;;;;;8.45;74.32;98430.44;6130283;23;20240;-92
2022/01/06 06:34:11;;;;;;;16.50;9.83;;;;;;;8.42;74.06;98421.94;6130398;23;20160;-92
2022/01/06 06:36:37;;;;;;;22.23;9.77;;;;;;;8.72;73.88;98435.91;6130218;23;20151;-93
2022/01/06 06:39:03;;;;;;;22.30;11.73;;;;;;;9.05;72.70;98436.59;6130317;23;20260;-92
2022/01/06 06:41:28;;;;;;;16.90;7.80;;;;;;;9.40;71.78;98438.94;6130142;23;20158;-93
2022/01/06 06:43:54;;;;;;;16.07;7.77;;;;;;;9.73;70.83;98442.16;6130403;23;20159;-94
2022/01/06 06:46:20;;;;;;;17.57;7.93;;;;;;;10.13;69.42;98440.63;6155825;23;20158;-92
2022/01/06 06:48:45;;;;;;;22.77;9.70;;;;;;;10.63;68.17;98437.44;6131508;23;20162;-93
2022/01/06 06:51:11;;;;;;;17.13;7.73;;;;;;;10.81;66.04;98439.72;6132128;23;20240;-93
2022/01/06 06:53:36;;;;;;;15.97;7.73;;;;;;;10.88;65.38;98451.47;6132068;23;20165;-93
2022/01/06 06:56:02;;;;;;;14.17;7.33;;;;;;;10.86;64.88;98447.28;6131864;23;20493;-94
2022/01/06 06:58:27;;;;;;;23.93;8.70;;;;;;;10.88;64.26;98451.47;6132084;23;20155;-92
2022/01/06 07:00:53;;;;;;;19.37;9.07;;;;;;;10.81;64.81;98454.59;6132018;23;20265;-91
2022/01/06 07:03:18;;;;;;;20.37;8.83;;;;;;;10.87;64.79;98459.47;6132523;23;20162;-93
2022/01/06 07:05:44;;;;;;;16.47;8.90;;;;;;;11.04;64.50;98446.94;6132171;23;20163;-92
2022/01/06 07:08:09;;;;;;;11.77;6.50;;;;;;;11.24;64.44;98453.47;6131943;23;20158;-93
2022/01/06 07:10:35;;;;;;;13.47;6.07;;;;;;;11.35;62.79;98445.75;6157583;23;20215;-92
2022/01/06 07:13:00;;;;;;;14.83;7.03;;;;;;;11.35;62.97;98458.00;6131831;23;20579;-93
2022/01/06 07:15:27;;;;;;;17.00;8.17;;;;;;;11.44;63.19;98457.41;6131683;23;20170;-91
2022/01/06 07:17:53;;;;;;;15.57;7.93;;;;;;;11.42;62.62;98464.56;6157437;23;20223;-94
2022/01/06 07:20:18;;;;;;;11.90;6.93;;;;;;;11.44;62.59;98467.91;6132747;23;20194;-93
2022/01/06 07:22:44;;;;;;;19.17;8.63;;;;;;;11.55;63.11;98463.63;6131791;23;20594;-92
2022/01/06 07:25:09;;;;;;;17.20;7.90;;;;;;;11.71;62.54;98474.78;6131588;23;20575;-93
2022/01/06 07:27:35;;;;;;;14.63;8.13;;;;;;;11.66;62.43;98463.72;6157680;23;20151;-93
2022/01/06 07:30:00;;;;;;;15.43;7.37;;;;;;;11.76;62.84;98466.63;6131553;23;20661;-94
2022/01/06 07:32:26;;;;;;;24.60;9.17;;;;;;;11.76;62.69;98465.78;6131745;23;20159;-93
2022/01/06 07:34:51;;;;;;;17.63;7.77;;;;;;;11.80;62.81;98460.22;6131724;23;20571;-93
2022/01/06 07:37:17;;;;;;;17.93;9.87;;;;;;;11.86;62.89;98465.06;6131657;23;20226;-94
2022/01/06 07:39:43;;;;;;;18.10;7.93;;;;;;;11.95;62.78;98460.97;6131692;23;20151;-93
2022/01/06 07:42:08;;;;;;;25.07;8.53;;;;;;;12.04;62.95;98460.31;6157718;23;20151;-94
2022/01/06 07:44:34;;;;;;;19.33;7.83;;;;;;;12.00;62.62;98461.50;6131728;23;20242;-93
2022/01/06 07:47:00;;;;;;;18.10;7.57;;;;;;;12.09;63.18;98461.69;6132029;23;20166;-93
2022/01/06 07:49:26;;;;;;;21.33;8.27;;;;;;;12.19;63.10;98461.88;6131509;23;20162;-94
2022/01/06 07:51:54;;;;;;;15.30;7.53;;;;;;;12.17;62.42;98458.50;6131483;23;20194;-92
2022/01/06 07:54:19;;;;;;;19.27;7.90;;;;;;;12.11;61.30;98464.19;6131332;23;20170;-91
2022/01/06 07:56:45;;;;;;;16.23;7.30;;;;;;;12.21;62.23;98470.50;6131218;23;20159;-93
2022/01/06 07:59:11;;;;;;;15.13;7.40;;;;;;;12.36;62.78;98458.06;6157292;23;20279;-93
2022/01/06 08:01:37;;;;;;;17.43;7.37;;;;;;;12.44;62.76;98461.84;6131312;23;20495;-93
2022/01/06 08:04:03;;;;;;;12.40;6.53;;;;;;;12.59;62.03;98459.91;6131274;23;20190;-93
2022/01/06 08:06:28;;;;;;;17.97;7.17;;;;;;;12.76;61.95;98473.50;6131623;23;20167;-93
2022/01/06 08:08:54;;;;;;;12.73;6.03;;;;;;;12.77;62.12;98471.72;6131363;23;20171;-92
2022/01/06 08:11:19;;;;;;;11.90;5.93;;;;;;;12.92;61.34;98468.84;6131389;23;20203;-93
2022/01/06 08:13:45;;;;;;;23.17;12.93;;;;;;;13.11;61.69;98468.38;6131370;23;20562;-93
2022/01/06 08:16:10;;;;;;;23.20;9.87;;;;;;;13.24;60.71;98473.56;6131259;23;20151;-93
2022/01/06 08:18:36;;;;;;;15.33;7.60;;;;;;;13.26;59.85;98474.31;6131000;23;20153;-93
2022/01/06 08:21:02;;;;;;;24.87;9.43;;;;;;;13.32;59.30;98466.78;6131248;23;20159;-94
2022/01/06 08:23:28;;;;;;;17.70;8.10;;;;;;;13.46;61.29;98478.94;6130941;23;20154;-93
2022/01/06 08:25:53;;;;;;;17.47;8.57;;;;;;;13.52;59.60;98473.22;6131135;23;20625;-92
2022/01/06 08:28:18;;;;;;;18.20;7.77;;;;;;;13.59;60.57;98478.84;6156767;23;20246;-94
2022/01/06 08:30:44;;;;;;;18.43;7.90;;;;;;;13.59;60.96;98477.06;6131052;23;20185;-94
2022/01/06 08:33:10;;;;;;;12.93;6.67;;;;;;;13.69;59.82;98478.03;6131063;23;20157;-93
2022/01/06 08:35:35;;;;;;;14.83;7.10;;;;;;;13.65;60.40;98476.59;6156512;23;20156;-93
2022/01/06 08:38:01;;;;;;;14.77;7.40;;;;;;;13.69;60.59;98485.09;6130989;23;20164;-93
2022/01/06 08:40:27;;;;;;;13.77;5.93;;;;;;;13.67;60.13;98479.94;6131302;23;20157;-94
2022/01/06 08:42:52;;;;;;;16.70;6.73;;;;;;;13.60;60.27;98477.91;6130931;23;20168;-93
2022/01/06 08:45:19;;;;;;;14.63;7.57;;;;;;;13.67;59.84;98485.22;6156838;23;20456;-93
2022/01/06 08:47:45;;;;;;;17.17;7.10;;;;;;;13.74;59.16;98473.25;6156554;23;20582;-93
2022/01/06 08:50:12;;;;;;;19.13;7.70;;;;;;;13.83;59.33;98474.34;6130713;23;20265;-93
2022/01/06 08:52:39;;;;;;;15.67;7.50;;;;;;;13.93;58.27;98473.53;6130827;23;20161;-94
2022/01/06 08:55:07;;;;;;;10.40;6.40;;;;;;;14.02;57.80;98482.50;6130861;23;20233;-93
2022/01/06 08:57:33;;;;;;;9.60;5.83;;;;;;;14.13;58.79;98475.47;6131151;23;20156;-94
2022/01/06 08:59:59;;;;;;;14.30;7.10;;;;;;;14.29;59.56;98472.47;6130909;23;20197;-93
2022/01/06 09:02:26;;;;;;;12.37;6.57;;;;;;;14.42;58.76;98473.22;6130853;23;20181;-93
2022/01/06 09:04:52;;;;;;;16.83;7.23;;;;;;;14.54;58.99;98476.72;6130794;23;20554;-94
2022/01/06 09:07:17;;;;;;;15.43;6.67;;;;;;;14.60;56.68;98476.22;6130836;23;20158;-93
2022/01/06 09:09:43;;;;;;;11.60;6.40;;;;;;;14.53;56.72;98480.28;6130517;23;20210;-94
2022/01/06 09:12:16;;;;;;;19.77;8.80;;;;;;;14.58;57.50;98483.41;6156364;23;20142;-92
2022/01/06 09:14:42;;;;;;;20.37;8.57;;;;;;;14.30;56.03;98473.31;6130539;23;20600;-93
2022/01/06 09:17:08;;;;;;;17.53;7.63;;;;;;;14.03;55.91;98476.31;6130541;23;20186;-92
2022/01/06 09:19:33;;;;;;;11.40;6.37;;;;;;;13.97;56.59;98472.34;6131126;23;20154;-93
2022/01/06 09:21:58;;;;;;;13.83;6.63;;;;;;;14.03;56.96;98477.16;6130688;23;20230;-93
2022/01/06 09:24:24;;;;;;;18.27;6.77;;;;;;;14.07;55.56;98473.31;6130483;23;20577;-92
2022/01/06 09:26:49;;;;;;;16.27;6.17;;;;;;;14.30;55.49;98468.91;6156870;23;20200;-93
2022/01/06 09:29:15;;;;;;;11.10;5.93;;;;;;;14.14;55.58;98469.25;6156643;23;20154;-92
2022/01/06 09:31:41;;;;;;;10.40;5.67;;;;;;;14.02;56.30;98462.28;6130356;23;20182;-93
2022/01/06 09:34:08;;;;;;;13.70;6.27;;;;;;;14.21;57.10;98466.13;6130465;23;20159;-92
2022/01/06 09:36:34;;;;;;;22.70;6.93;;;;;;;14.41;55.64;98465.44;6130312;23;20586;-91
2022/01/06 09:39:01;;;;;;;16.90;8.13;;;;;;;14.26;55.96;98461.31;6130653;23;20165;-92
2022/01/06 09:41:27;;;;;;;9.67;5.93;;;;;;;14.22;56.66;98465.19;6130889;23;20224;-92
2022/01/06 09:43:54;;;;;;;16.57;8.17;;;;;;;14.14;55.96;98463.13;6130263;23;20497;-92
2022/01/06 09:46:21;;;;;;;10.30;5.93;;;;;;;14.30;55.86;98453.09;6130210;23;20177;-92
2022/01/06 09:48:47;;;;;;;12.93;6.80;;;;;;;14.40;56.91;98459.34;6130382;23;20201;-92
2022/01/06 09:51:14;;;;;;;12.17;6.10;;;;;;;14.39;55.73;98448.91;6156099;23;20195;-92
2022/01/06 09:53:39;;;;;;;11.83;5.30;;;;;;;14.54;55.37;98458.25;6156204;23;20162;-92
2022/01/06 09:56:06;;;;;;;11.83;4.80;;;;;;;14.64;55.59;98453.91;6130150;23;20158;-91
2022/01/06 09:58:32;;;;;;;12.17;5.43;;;;;;;14.86;55.32;98451.22;6154304;23;20164;-91
2022/01/06 10:00:58;;;;;;;9.93;4.43;;;;;;;14.93;54.32;98446.28;6154911;23;20158;-92
2022/01/06 10:03:44;;;;;;;12.23;6.13;;;;;;;14.99;54.54;98449.25;6130353;23;20221;-93
2022/01/06 10:06:17;;;;;;;10.30;5.43;;;;;;;14.82;54.68;98454.22;6130420;23;20649;-93
2022/01/06 10:09:02;;;;;;;8.70;4.70;;;;;;;15.06;53.28;98446.97;6155715;23;20229;-93
2022/01/06 10:11:34;;;;;;;11.37;5.43;;;;;;;15.10;53.45;98449.22;6155622;23;20190;-92
2022/01/06 10:14:07;;;;;;;10.83;5.03;;;;;;;15.16;54.16;98448.75;6130405;23;20551;-92
2022/01/06 10:16:34;;;;;;;11.23;5.63;;;;;;;15.17;54.48;98449.59;6130088;23;20146;-93
2022/01/06 10:19:03;;;;;;;11.13;5.87;;;;;;;15.18;54.46;98443.31;6154793;23;20152;-92
2022/01/06 10:21:44;;;;;;;11.73;5.10;;;;;;;15.09;54.81;98442.28;6156061;23;20144;-92
2022/01/06 10:24:12;;;;;;;9.83;4.97;;;;;;;15.26;54.68;98438.25;6131970;23;20147;-93
2022/01/06 10:26:54;;;;;;;14.77;5.57;;;;;;;15.29;53.61;98444.13;6132028;23;20155;-92
2022/01/06 10:29:20;;;;;;;13.33;5.70;;;;;;;15.30;53.82;98444.97;6132071;23;20188;-92
2022/01/06 10:31:46;;;;;;;10.80;5.47;;;;;;;15.23;53.58;98447.25;6131843;23;20510;-92
2022/01/06 10:34:12;;;;;;;14.90;5.93;;;;;;;15.12;54.54;98443.84;6132319;23;20194;-91
2022/01/06 10:36:39;;;;;;;12.20;5.73;;;;;;;15.10;54.64;98446.59;6131897;23;20158;-92
2022/01/06 10:39:08;;;;;;;21.47;7.03;;;;;;;14.93;55.61;98443.66;6131943;23;20166;-92
2022/01/06 10:41:34;;;;;;;11.97;6.07;;;;;;;14.70;55.49;98442.88;6131573;23;20159;-93
2022/01/06 10:44:01;;;;;;;16.20;6.37;;;;;;;14.72;56.50;98433.88;6131962;23;20213;-92
2022/01/06 10:46:37;;;;;;;11.63;6.27;;;;;;;14.63;57.21;98436.41;6131839;23;20166;-92
2022/01/06 10:49:15;;;;;;;11.70;6.00;;;;;;;14.70;56.41;98434.97;6132615;23;20484;-93
2022/01/06 10:51:49;;;;;;;9.03;5.20;;;;;;;14.71;56.95;98439.28;6157316;23;20590;-93
2022/01/06 10:54:18;;;;;;;11.13;6.27;;;;;;;14.74;57.06;98439.03;6157463;23;20190;-92
2022/01/06 10:56:56;;;;;;;10.37;5.07;;;;;;;14.43;57.61;98432.72;6131810;23;20162;-92
2022/01/06 10:59:29;;;;;;;16.27;6.70;;;;;;;14.38;58.92;98434.06;6131498;23;20173;-93
2022/01/06 11:01:54;;;;;;;17.33;7.00;;;;;;;14.48;58.40;98427.09;6131806;23;20226;-93
2022/01/06 11:04:20;;;;;;;14.30;7.47;;;;;;;14.43;59.05;98426.63;6131885;23;20166;-93
2022/01/06 11:06:46;;;;;;;15.53;7.57;;;;;;;14.41;58.91;98418.00;6131677;23;20158;-94
2022/01/06 11:09:12;;;;;;;15.43;6.53;;;;;;;14.67;58.59;98416.75;6131854;23;20155;-93
2022/01/06 11:14:23;;;;;;;12.67;6.27;;;;;;;14.66;58.62;98417.69;6157227;23;20598;-93
2022/01/06 11:16:49;;;;;;;13.70;7.33;;;;;;;14.75;57.97;98406.41;6131298;23;20170;-92
2022/01/06 11:19:14;;;;;;;17.60;7.80;;;;;;;14.69;57.88;98409.53;6129619;23;20162;-93
2022/01/06 11:21:49;;;;;;;17.17;7.80;;;;;;;14.69;58.55;98407.75;6129147;23;20238;-92
2022/01/06 11:24:20;;;;;;;12.57;6.27;;;;;;;14.76;58.31;98405.44;6154993;23;20161;-92
2022/01/06 11:27:10;;;;;;;16.87;8.10;;;;;;;15.02;57.98;98404.16;6129265;23;20237;-92
2022/01/06 11:29:41;;;;;;;15.07;7.73;;;;;;;15.30;57.32;98400.91;6154888;23;20162;-92
2022/01/06 11:32:24;;;;;;;21.80;8.53;;;;;;;15.08;57.53;98400.16;6129183;23;20681;-92
2022/01/06 11:35:11;;;;;;;14.30;7.87;;;;;;;15.07;56.89;98387.94;6130974;23;20225;-92
2022/01/06 11:37:47;;;;;;;14.87;7.27;;;;;;;15.27;56.57;98382.69;6131555;23;20158;-93
2022/01/06 11:40:16;;;;;;;19.00;8.00;;;;;;;15.57;55.93;98391.66;6157808;23;20136;-94
2022/01/06 11:42:56;;;;;;;12.13;6.97;;;;;;;15.81;55.45;98387.78;6132097;23;20180;-93